Flight Track Log - Related Links

Times and Time Zones

All times are in EDT time to prevent confusion due to time zone crossing. See the FLG3310 flight status page for this flight to view local times or setup timezone preferences in your user account.

Time Position Orientation Groundspeed Altitude Reporting Facility
EDT Latitude Longitude Course Direction KTS MPH feet Rate Location/Type
Thu 07:36:24 AM 39.2833 -94.6167 96° East 219 252 3,800  Level Kansas City TRACON
Thu 07:37:27 AM 39.2700 -94.5158 100° East 282 325 6,400 2,780 Climbing Kansas City Center
Thu 07:38:00 AM 39.1272 -94.2627 111° Southeast  Level FlightAware Approximate
Thu 07:38:27 AM 39.2317 -94.4308 120° Southeast 287 330 9,500  Level Kansas City Center
Thu 07:39:00 AM 39.0888 -94.1348 111° Southeast  Level FlightAware Approximate
Thu 07:39:28 AM 39.1889 -94.3375 121° Southeast 325 374 11,300  Level Kansas City Center
Thu 07:40:00 AM 39.0832 -93.9991 99° East  Level FlightAware Approximate
Thu 07:40:29 AM 39.1328 -94.2133 120° Southeast 357 411 14,500  Level Kansas City Center
Thu 07:41:00 AM 39.0664 -93.8637 96° East  Level FlightAware Approximate
Thu 07:41:30 AM 39.0942 -94.0986 113° Southeast 370 426 16,500  Level Kansas City Center
Thu 07:42:30 AM 39.0856 -93.9644 95° East 392 451 18,400 1,884 Climbing Kansas City Center
Thu 07:43:31 AM 39.0739 -93.8050 95° East 401 461 20,300 1,820 Climbing Kansas City Center
Thu 07:44:32 AM 39.0647 -93.6642 95° East 411 473 22,100 1,672 Climbing Kansas City Center
Thu 07:45:33 AM 39.0550 -93.5206 95° East 420 483 23,700 1,623 Climbing Kansas City Center
Thu 07:46:34 AM 39.0450 -93.3583 94° East 430 495 25,400 1,525 Climbing Kansas City Center
Thu 07:47:35 AM 39.0333 -93.1981 95° East 441 507 26,800 1,377 Climbing Kansas City Center
Thu 07:48:36 AM 39.0222 -93.0394 95° East 449 517 28,200 1,377 Climbing Kansas City Center
Thu 07:49:37 AM 39.0097 -92.8742 96° East 461 531 29,600 1,438 Climbing Kansas City Center
Thu 07:50:37 AM 38.9639 -92.7081 109° East 468 539 31,100 1,488 Climbing Kansas City Center
Thu 07:51:38 AM 38.9156 -92.5508 112° Southeast 468 539 32,600 1,377 Climbing Kansas City Center
Thu 07:52:39 AM 38.8664 -92.3942 112° Southeast 469 540 33,900 1,180 Climbing Kansas City Center
Thu 07:53:40 AM 38.7961 -92.2517 122° Southeast 471 542 35,000 541 Climbing Kansas City Center
Thu 07:54:41 AM 38.6875 -92.1586 146° Southeast 470 541 35,000 443 Level Kansas City Center
Thu 07:55:42 AM 38.5631 -92.0986 159° South 474 545 35,900 1,180 Climbing Kansas City Center
Thu 07:56:43 AM 38.4408 -92.0403 160° South 469 540 37,400 1,377 Climbing Kansas City Center
Thu 07:57:44 AM 38.3231 -91.9828 159° South 460 529 38,700 787 Climbing Kansas City Center
Thu 07:58:45 AM 38.2053 -91.9272 160° South 452 520 39,000 148 Climbing Kansas City Center
Thu 07:59:46 AM 38.0822 -91.8697 160° South 458 527 39,000  Level Kansas City Center
Thu 08:00:47 AM 37.9314 -91.7975 159° South 473 544 39,000  Level Kansas City Center
Thu 08:01:48 AM 37.8044 -91.7381 160° South 478 550 39,000  Level Kansas City Center
Thu 08:02:49 AM 37.6833 -91.6814 160° South 468 539 39,000 -197 Level Kansas City Center
Thu 08:03:50 AM 37.5644 -91.6256 160° South 458 527 38,600 -689 Descending Kansas City Center
Thu 08:04:51 AM 37.4453 -91.5692 159° South 454 522 37,600 -984 Descending Kansas City Center
Thu 08:05:52 AM 37.3236 -91.5142 160° South 459 528 36,600 -984 Descending Kansas City Center
Thu 08:06:53 AM 37.2017 -91.4556 159° South 465 535 35,600 -1,033 Descending Kansas City Center
Thu 08:07:54 AM 37.0792 -91.3997 160° South 467 537 34,500 -1,033 Descending Kansas City Center
Thu 08:08:55 AM 36.9603 -91.3422 159° South 460 529 33,500 -984 Descending Kansas City Center
Thu 08:09:56 AM 36.8408 -91.2875 160° South 455 524 32,500 -984 Descending Kansas City Center
Thu 08:10:57 AM 36.7203 -91.2333 160° South 457 526 31,500 -1,045 Descending Kansas City Center
Thu 08:12:08 AM 36.5750 -91.1631 159° South 458 527 30,200 -1,695 Descending Memphis Center
Thu 08:13:08 AM 36.4544 -91.1156 162° South 453 521 27,800 -2,350 Descending Memphis Center
Thu 08:14:08 AM 36.3381 -91.0628 160° South 447 514 25,500 -2,150 Descending Memphis Center
Thu 08:15:08 AM 36.2278 -91.0131 160° South 441 507 23,500 -1,750 Descending Memphis Center
Thu 08:16:08 AM 36.1175 -90.9633 160° South 430 495 22,000 -1,250 Descending Memphis Center
Thu 08:17:08 AM 36.0092 -90.9317 167° South 417 480 21,000 -700 Descending Memphis Center
Thu 08:18:08 AM 35.9031 -90.9028 168° South 407 468 20,600 -1,200 Descending Memphis Center
Thu 08:19:08 AM 35.7947 -90.8739 168° South 402 463 18,600 -1,950 Descending Memphis Center
Thu 08:20:08 AM 35.6969 -90.8478 168° South 388 447 16,700 -1,900 Descending Memphis Center
Thu 08:21:08 AM 35.6053 -90.8244 168° South 358 412 14,800 -1,950 Descending Memphis Center
Thu 08:22:08 AM 35.5156 -90.8008 168° South 342 394 12,800 -2,000 Descending Memphis Center
Thu 08:23:08 AM 35.4428 -90.7394 145° Southeast 311 358 10,800 -1,400 Descending Memphis Center
Thu 08:24:08 AM 35.4200 -90.6372 105° East 298 343 10,000 -800 Descending Memphis Center
Thu 08:25:08 AM 35.4097 -90.5406 97° East 283 326 9,200 -1,050 Descending Memphis Center
Thu 08:26:08 AM 35.3850 -90.4514 109° East 283 326 7,900 -1,300 Descending Memphis Center
Thu 08:27:08 AM 35.3619 -90.3647 108° East 278 320 6,600 -950 Descending Memphis Center
Thu 08:28:08 AM 35.3431 -90.2858 106° East 256 295 6,000 -300 Descending Memphis Center
Thu 08:29:08 AM 35.3244 -90.2169 108° East 236 272 6,000 -300 Level Memphis Center
Thu 08:30:08 AM 35.3097 -90.1383 103° East 230 265 5,400 -500 Descending Memphis Center
Thu 08:31:08 AM 35.3261 -90.0619 75° East 225 259 5,000 -250 Descending Memphis Center
Thu 08:31:44 AM 35.3167 -90.0167 104° East 225 259 5,000 -188 Level KMEM
Thu 08:32:44 AM 35.2667 -89.9833 151° Southeast 169 194 4,700 -667 Descending KMEM
Thu 08:33:50 AM 35.2167 -89.9833 180° South 159 183 3,600 -952 Descending KMEM
Thu 08:34:50 AM 35.1833 -89.9833 180° South 158 182 2,700 -803 Descending KMEM
Thu 08:35:57 AM 35.1333 -89.9833 180° South 156 180 1,900 -716 Descending KMEM

Login

Don't have an account? Register now (free) for customized features, flight alerts, and more!